Time;durP1;ratioP1;P1;durP2;ratioP2;P2;SDS_P1;SDS_P2;PMS_P1;PMS_P2;Temp;Humidity;BMP_temperature;BMP_pressure;BME280_temperature;BME280_humidity;BME280_pressure;Samples;Min_cycle;Max_cycle;Signal;HPM_P1;HPM_P2
2023/01/01 00:00:40;;;;;;;1.77;1.55;;;20.20;43.70;;;;;;5055318;28;20408;-67
2023/01/01 00:03:08;;;;;;;1.73;1.63;;;20.20;43.70;;;;;;5037862;28;20103;-67
2023/01/01 00:05:37;;;;;;;1.33;1.13;;;20.20;43.80;;;;;;5055557;28;20378;-66
2023/01/01 00:08:05;;;;;;;1.50;1.27;;;20.20;43.80;;;;;;5055330;28;20048;-67
2023/01/01 00:10:32;;;;;;;1.52;1.40;;;20.20;43.70;;;;;;5054842;28;20627;-67
2023/01/01 00:12:59;;;;;;;2.05;1.30;;;20.20;43.70;;;;;;5055096;28;20424;-67
2023/01/01 00:15:27;;;;;;;1.67;1.30;;;20.20;43.80;;;;;;5054006;28;20512;-67
2023/01/01 00:17:56;;;;;;;1.70;1.58;;;20.20;43.70;;;;;;5055573;28;20116;-67
2023/01/01 00:20:24;;;;;;;1.65;1.55;;;20.20;43.80;;;;;;5055014;28;20045;-67
2023/01/01 00:22:57;;;;;;;1.63;1.48;;;20.20;43.70;;;;;;5054841;28;20136;-67
2023/01/01 00:25:24;;;;;;;1.58;1.27;;;20.20;43.70;;;;;;5053899;28;20123;-67
2023/01/01 00:27:51;;;;;;;2.05;1.77;;;20.20;43.70;;;;;;5054508;28;20507;-67
2023/01/01 00:30:18;;;;;;;1.42;1.33;;;20.10;43.70;;;;;;5055278;28;20469;-67
2023/01/01 00:32:45;;;;;;;1.35;1.25;;;20.20;43.70;;;;;;5052721;28;20515;-67
2023/01/01 00:35:23;;;;;;;1.38;1.25;;;20.10;43.70;;;;;;5054402;28;20057;-66
2023/01/01 00:37:51;;;;;;;1.38;1.20;;;20.10;43.70;;;;;;5054040;28;20095;-69
2023/01/01 00:40:18;;;;;;;1.33;1.20;;;20.20;43.70;;;;;;5054743;28;20124;-67
2023/01/01 00:42:45;;;;;;;1.60;1.50;;;20.20;43.70;;;;;;5054750;28;20063;-66
2023/01/01 00:45:13;;;;;;;1.40;1.20;;;20.10;43.70;;;;;;5054523;28;20053;-67
2023/01/01 00:47:48;;;;;;;1.05;1.05;;;20.20;44.00;;;;;;5054616;28;20045;-67
2023/01/01 00:50:15;;;;;;;1.30;1.20;;;20.10;43.70;;;;;;5054240;28;20076;-67
2023/01/01 00:52:42;;;;;;;1.20;1.10;;;20.20;43.80;;;;;;5054895;28;20051;-67
2023/01/01 00:55:10;;;;;;;2.28;1.40;;;20.10;43.80;;;;;;5054353;28;20044;-67
2023/01/01 00:57:37;;;;;;;1.20;1.10;;;20.10;43.80;;;;;;5054300;28;20053;-67
2023/01/01 01:00:05;;;;;;;1.67;1.30;;;20.10;43.70;;;;;;5054559;28;20047;-67
2023/01/01 01:02:32;;;;;;;1.25;1.15;;;20.20;43.80;;;;;;5054678;28;20055;-66
2023/01/01 01:05:00;;;;;;;1.88;1.60;;;20.10;43.80;;;;;;5054159;28;20098;-67
2023/01/01 01:07:27;;;;;;;1.73;1.20;;;20.10;43.80;;;;;;5054272;28;20040;-67
2023/01/01 01:09:54;;;;;;;2.03;1.35;;;20.10;43.80;;;;;;5054450;28;20405;-67
2023/01/01 01:12:21;;;;;;;1.40;1.30;;;20.10;43.80;;;;;;5053621;28;20081;-67
2023/01/01 01:14:48;;;;;;;1.50;1.40;;;20.10;43.80;;;;;;5054000;28;20532;-67
2023/01/01 01:17:15;;;;;;;1.23;1.05;;;20.10;43.80;;;;;;5053521;28;20084;-67
2023/01/01 01:19:42;;;;;;;1.05;1.05;;;20.10;43.80;;;;;;5053960;28;20045;-67
2023/01/01 01:22:10;;;;;;;1.15;0.98;;;20.10;43.80;;;;;;5053433;28;20045;-66
2023/01/01 01:24:37;;;;;;;1.38;1.13;;;20.10;43.80;;;;;;5053306;28;20137;-66
2023/01/01 01:27:04;;;;;;;2.85;1.75;;;20.10;43.80;;;;;;5053904;28;20160;-67
2023/01/01 01:29:31;;;;;;;1.30;1.20;;;20.10;43.80;;;;;;5054141;28;20051;-67
2023/01/01 01:31:58;;;;;;;1.30;1.20;;;20.10;43.80;;;;;;5053796;28;20563;-66
2023/01/01 01:34:25;;;;;;;1.70;1.35;;;20.10;43.80;;;;;;5053750;28;20563;-67
2023/01/01 01:36:55;;;;;;;1.52;1.33;;;20.10;43.80;;;;;;5053899;28;20374;-67
2023/01/01 01:39:22;;;;;;;1.80;1.20;;;20.10;43.80;;;;;;5054076;28;20072;-67
2023/01/01 01:41:49;;;;;;;1.40;1.30;;;20.10;43.80;;;;;;5053398;28;20127;-67
2023/01/01 01:44:49;;;;;;;1.27;1.17;;;20.10;43.80;;;;;;5035822;28;20076;-67
2023/01/01 01:47:28;;;;;;;1.55;0.95;;;20.20;43.80;;;;;;5053933;28;20045;-67
2023/01/01 01:50:08;;;;;;;1.60;1.13;;;20.20;43.90;;;;;;5052695;28;20053;-67
2023/01/01 01:52:38;;;;;;;1.03;0.90;;;20.10;43.80;;;;;;5053628;28;20052;-67
2023/01/01 01:55:06;;;;;;;;;;;20.10;44.30;;;;;;5054056;28;20471;-67
2023/01/01 01:57:34;;;;;;;;;;;20.10;43.80;;;;;;5053987;28;19924;-66
2023/01/01 02:00:01;;;;;;;;;;;20.10;43.80;;;;;;5053619;28;20427;-66
2023/01/01 02:02:40;;;;;;;;;;;20.10;43.80;;;;;;5054059;28;19921;-66
2023/01/01 02:05:08;;;;;;;;;;;20.10;43.80;;;;;;5053836;28;19921;-67
2023/01/01 02:07:35;;;;;;;;;;;20.10;43.80;;;;;;5054001;28;19927;-66
2023/01/01 02:10:02;;;;;;;;;;;20.10;43.90;;;;;;5053651;28;19927;-66
2023/01/01 02:12:29;;;;;;;;;;;20.10;43.80;;;;;;5053648;28;20020;-66
2023/01/01 02:14:57;;;;;;;;;;;20.10;43.80;;;;;;5053573;28;19920;-66
2023/01/01 02:17:39;;;;;;;;;;;20.10;43.80;;;;;;5053438;28;19956;-67
2023/01/01 02:20:15;;;;;;;;;;;20.10;43.80;;;;;;5053402;28;19972;-66
2023/01/01 02:23:00;;;;;;;;;;;20.10;43.80;;;;;;5053706;28;19920;-67
2023/01/01 02:25:50;;;;;;;;;;;20.10;43.80;;;;;;5053413;28;19921;-67
2023/01/01 02:28:36;;;;;;;;;;;20.10;43.80;;;;;;5053355;28;20296;-66
2023/01/01 02:31:04;;;;;;;;;;;20.10;43.80;;;;;;5038306;28;19927;-66
2023/01/01 02:33:31;;;;;;;;;;;20.10;43.80;;;;;;5053887;28;19927;-66
2023/01/01 02:36:01;;;;;;;;;;;20.10;43.80;;;;;;5053370;28;19967;-66
2023/01/01 02:38:30;;;;;;;;;;;20.10;43.80;;;;;;5035172;28;19964;-67
2023/01/01 02:41:02;;;;;;;;;;;20.10;43.80;;;;;;5053369;28;19976;-66
2023/01/01 02:43:29;;;;;;;;;;;20.10;43.80;;;;;;5053205;28;20011;-67
2023/01/01 02:45:57;;;;;;;;;;;20.10;43.80;;;;;;5053248;28;19964;-66
2023/01/01 02:48:41;;;;;;;;;;;20.10;43.80;;;;;;5053232;28;19935;-67
2023/01/01 02:51:28;;;;;;;;;;;20.10;44.40;;;;;;5053262;28;20435;-67
2023/01/01 02:54:08;;;;;;;;;;;20.10;43.80;;;;;;5053366;28;19974;-67
2023/01/01 02:56:55;;;;;;;;;;;20.10;43.80;;;;;;5034904;28;19921;-67
2023/01/01 03:02:39;;;;;;;;;;;20.10;43.80;;;;;;5056434;28;20373;-67
2023/01/01 03:05:17;;;;;;;;;;;20.10;43.80;;;;;;5043801;28;20298;-67
2023/01/01 03:08:04;;;;;;;;;;;20.10;43.80;;;;;;5056976;28;20003;-67
2023/01/01 03:10:36;;;;;;;;;;;20.10;43.80;;;;;;5057109;28;19928;-66
2023/01/01 03:13:09;;;;;;;;;;;20.10;43.90;;;;;;5056931;28;19972;-67
2023/01/01 03:15:41;;;;;;;;;;;20.10;43.90;;;;;;5056706;28;19968;-66
2023/01/01 03:18:18;;;;;;;;;;;20.10;43.90;;;;;;5056659;28;20430;-66
2023/01/01 03:20:47;;;;;;;;;;;20.10;43.90;;;;;;5057036;28;19943;-67
2023/01/01 03:23:17;;;;;;;;;;;20.10;43.90;;;;;;5056489;28;20047;-66
2023/01/01 03:25:46;;;;;;;;;;;20.10;43.90;;;;;;5056957;28;19927;-66
2023/01/01 03:28:15;;;;;;;;;;;20.10;43.90;;;;;;5057129;28;20019;-66
2023/01/01 03:30:44;;;;;;;;;;;20.10;43.90;;;;;;5056900;28;20372;-66
2023/01/01 03:33:21;;;;;;;;;;;20.10;43.90;;;;;;5056555;28;19928;-66
2023/01/01 03:35:51;;;;;;;;;;;20.10;43.90;;;;;;5056539;28;20003;-66
2023/01/01 03:38:21;;;;;;;;;;;20.10;43.90;;;;;;5056505;28;20330;-67
2023/01/01 03:40:50;;;;;;;;;;;20.10;43.90;;;;;;5056404;28;20291;-67
2023/01/01 03:43:20;;;;;;;;;;;20.10;43.90;;;;;;5056130;28;20007;-67
2023/01/01 03:45:47;;;;;;;;;;;20.10;43.90;;;;;;5038930;28;19920;-67
2023/01/01 03:48:15;;;;;;;;;;;20.10;44.00;;;;;;5038579;28;20015;-66
2023/01/01 03:51:01;;;;;;;;;;;20.10;43.90;;;;;;5056189;28;20284;-66
2023/01/01 03:53:37;;;;;;;;;;;20.10;43.90;;;;;;5056309;28;19927;-66
2023/01/01 03:56:24;;;;;;;;;;;20.10;43.90;;;;;;5056151;28;19936;-66
2023/01/01 03:58:53;;;;;;;;;;;20.10;44.50;;;;;;5041356;28;19921;-66
2023/01/01 04:01:25;;;;;;;;;;;20.10;43.90;;;;;;5056330;28;19920;-66
2023/01/01 04:03:53;;;;;;;;;;;20.10;43.90;;;;;;5038528;28;19921;-67
2023/01/01 04:06:20;;;;;;;;;;;20.10;43.90;;;;;;5055847;28;19921;-67
2023/01/01 04:08:48;;;;;;;;;;;20.10;43.90;;;;;;5056114;28;19920;-67
2023/01/01 04:14:04;;;;;;;;;;;20.10;43.90;;;;;;5055302;28;20291;-66
2023/01/01 04:16:31;;;;;;;;;;;20.10;43.90;;;;;;5056143;28;20007;-67
2023/01/01 04:18:58;;;;;;;;;;;20.10;43.90;;;;;;5055559;28;20385;-66
2023/01/01 04:21:25;;;;;;;;;;;20.10;43.90;;;;;;5055461;28;19931;-66
2023/01/01 04:23:52;;;;;;;;;;;20.10;43.90;;;;;;5055419;28;20368;-66
2023/01/01 04:26:19;;;;;;;;;;;20.10;43.90;;;;;;5055580;28;19921;-66
2023/01/01 04:28:46;;;;;;;;;;;20.10;43.90;;;;;;5055701;28;19964;-66
2023/01/01 04:31:13;;;;;;;;;;;20.10;43.90;;;;;;5055784;28;19920;-66
2023/01/01 04:33:39;;;;;;;;;;;20.00;43.90;;;;;;5055674;28;19920;-66
2023/01/01 04:36:08;;;;;;;;;;;20.10;43.90;;;;;;5055677;28;19928;-66
2023/01/01 04:38:35;;;;;;;;;;;20.10;43.90;;;;;;5054589;28;19924;-67
2023/01/01 04:41:03;;;;;;;;;;;20.00;43.90;;;;;;5055278;28;19927;-66
2023/01/01 04:43:30;;;;;;;;;;;20.00;43.90;;;;;;5054988;28;19927;-68
2023/01/01 04:45:58;;;;;;;;;;;20.00;43.90;;;;;;5055114;28;19921;-67
2023/01/01 04:48:25;;;;;;;;;;;20.00;43.90;;;;;;5037457;28;19921;-66
2023/01/01 04:50:59;;;;;;;;;;;20.00;43.90;;;;;;5054556;28;20384;-66
2023/01/01 04:53:28;;;;;;;;;;;20.00;43.90;;;;;;5054949;28;20369;-66
2023/01/01 04:55:55;;;;;;;;;;;20.00;43.90;;;;;;5054522;28;19972;-66
2023/01/01 04:58:22;;;;;;;;;;;20.00;43.90;;;;;;5054746;28;19927;-66
2023/01/01 05:00:50;;;;;;;;;;;20.00;43.90;;;;;;5054783;28;19920;-66
2023/01/01 05:03:17;;;;;;;;;;;20.00;43.90;;;;;;5054635;28;20355;-67
2023/01/01 05:05:44;;;;;;;;;;;20.00;43.90;;;;;;5054660;28;19927;-67
2023/01/01 05:08:16;;;;;;;;;;;20.00;43.90;;;;;;5054526;28;19921;-66
2023/01/01 05:10:43;;;;;;;;;;;20.00;43.90;;;;;;5054455;28;19927;-67
2023/01/01 05:13:10;;;;;;;;;;;20.00;44.00;;;;;;5054254;28;20343;-66
2023/01/01 05:15:37;;;;;;;;;;;20.00;44.00;;;;;;5053926;28;19920;-66
2023/01/01 05:18:04;;;;;;;;;;;20.00;44.00;;;;;;5055029;28;19963;-66
2023/01/01 05:20:31;;;;;;;;;;;20.00;44.00;;;;;;5054249;28;19927;-66
2023/01/01 05:22:58;;;;;;;;;;;20.00;44.00;;;;;;5054091;28;20008;-66
2023/01/01 05:25:25;;;;;;;;;;;20.00;44.00;;;;;;5054302;28;20019;-66
2023/01/01 05:27:52;;;;;;;;;;;20.00;44.00;;;;;;5054111;28;19920;-66
2023/01/01 05:30:19;;;;;;;;;;;20.00;44.00;;;;;;5053656;28;19968;-66
2023/01/01 05:32:46;;;;;;;;;;;20.00;44.00;;;;;;5054285;28;19927;-66
2023/01/01 05:35:13;;;;;;;;;;;20.00;44.00;;;;;;5053070;28;19927;-66
2023/01/01 05:37:40;;;;;;;;;;;20.00;44.00;;;;;;5054101;28;19964;-67
2023/01/01 05:40:07;;;;;;;;;;;20.00;44.00;;;;;;5053599;28;19931;-67
2023/01/01 05:42:35;;;;;;;;;;;20.00;44.00;;;;;;5053537;28;19921;-67
2023/01/01 05:45:02;;;;;;;;;;;20.00;43.90;;;;;;5053415;28;19921;-67
2023/01/01 05:47:29;;;;;;;;;;;20.00;44.00;;;;;;5053449;28;19972;-67
2023/01/01 05:49:56;;;;;;;;;;;20.00;44.00;;;;;;5053249;28;20300;-67
2023/01/01 05:52:22;;;;;;;;;;;20.00;44.00;;;;;;5053360;28;19927;-67
2023/01/01 05:54:52;;;;;;;;;;;20.00;44.00;;;;;;5054208;28;19921;-67
2023/01/01 05:57:19;;;;;;;;;;;20.00;44.00;;;;;;5053955;28;19942;-67
2023/01/01 05:59:46;;;;;;;;;;;20.00;44.00;;;;;;5053842;28;20261;-67
2023/01/01 06:02:13;;;;;;;;;;;20.10;44.00;;;;;;5053531;28;20066;-67
2023/01/01 06:04:40;;;;;;;;;;;20.10;43.90;;;;;;5053023;28;19962;-67
2023/01/01 06:07:07;;;;;;;;;;;20.10;43.90;;;;;;5053765;28;20015;-67
2023/01/01 06:09:34;;;;;;;;;;;20.10;43.90;;;;;;5053981;28;19927;-67
2023/01/01 06:12:01;;;;;;;;;;;20.10;43.80;;;;;;5053592;28;20351;-67
2023/01/01 06:14:31;;;;;;;;;;;20.20;43.80;;;;;;5053820;28;19927;-67
2023/01/01 06:16:58;;;;;;;;;;;20.20;43.80;;;;;;5053587;28;20011;-67
2023/01/01 06:19:25;;;;;;;;;;;20.20;43.70;;;;;;5052841;28;19928;-67
2023/01/01 06:21:52;;;;;;;;;;;20.20;43.70;;;;;;5035440;28;19967;-67
2023/01/01 06:24:20;;;;;;;;;;;20.20;43.70;;;;;;5053684;28;19920;-67
2023/01/01 06:26:47;;;;;;;;;;;20.30;43.70;;;;;;5053769;28;19921;-68
2023/01/01 06:29:14;;;;;;;;;;;20.30;43.70;;;;;;5053349;28;19921;-66
2023/01/01 06:31:41;;;;;;;;;;;20.30;43.60;;;;;;5053277;28;19927;-67
2023/01/01 06:34:08;;;;;;;;;;;20.30;43.60;;;;;;5053437;28;20452;-67
2023/01/01 06:36:35;;;;;;;;;;;20.30;43.50;;;;;;5055281;28;19971;-67
2023/01/01 06:39:02;;;;;;;;;;;20.30;43.50;;;;;;5056839;28;20007;-67
2023/01/01 06:41:29;;;;;;;;;;;20.30;43.50;;;;;;5056469;28;20015;-67
2023/01/01 06:43:57;;;;;;;;;;;20.30;43.40;;;;;;5057656;28;19927;-67
2023/01/01 06:46:25;;;;;;;;;;;20.30;43.40;;;;;;5056874;28;19971;-67
2023/01/01 06:48:54;;;;;;;;;;;20.30;43.40;;;;;;5056810;28;20369;-67
2023/01/01 06:51:22;;;;;;;;;;;20.40;43.40;;;;;;5057382;28;19928;-67
2023/01/01 06:53:50;;;;;;;;;;;20.40;43.40;;;;;;5057678;28;20311;-67
2023/01/01 06:56:17;;;;;;;;;;;20.40;43.30;;;;;;5057441;28;19975;-67
2023/01/01 06:58:44;;;;;;;;;;;20.40;43.20;;;;;;5056921;28;19927;-67
2023/01/01 07:01:13;;;;;;;;;;;20.40;43.20;;;;;;5056696;28;19975;-67
2023/01/01 07:03:41;;;;;;;;;;;20.50;43.20;;;;;;5056979;28;19966;-67
2023/01/01 07:06:08;;;;;;;;;;;20.50;43.20;;;;;;5057056;28;19921;-67
2023/01/01 07:08:36;;;;;;;;;;;20.50;43.10;;;;;;5057166;28;20307;-67
2023/01/01 07:11:03;;;;;;;;;;;20.50;43.10;;;;;;5056475;28;20007;-67
2023/01/01 07:13:30;;;;;;;;;;;20.50;43.00;;;;;;5056907;28;20372;-67
2023/01/01 07:15:57;;;;;;;;;;;20.60;43.00;;;;;;5056910;28;19929;-67
2023/01/01 07:18:24;;;;;;;;;;;20.60;43.00;;;;;;5056854;28;19928;-67
2023/01/01 07:20:52;;;;;;;;;;;20.60;42.90;;;;;;5056882;28;20459;-67
2023/01/01 07:23:19;;;;;;;;;;;20.60;42.80;;;;;;5056634;28;19920;-66
2023/01/01 07:25:50;;;;;;;;;;;20.70;42.90;;;;;;5039356;28;20253;-67
2023/01/01 07:28:17;;;;;;;;;;;20.70;42.80;;;;;;5056568;28;19927;-67
2023/01/01 07:30:45;;;;;;;;;;;20.70;42.80;;;;;;5056813;28;19920;-67
2023/01/01 07:33:12;;;;;;;;;;;20.70;42.70;;;;;;5056546;28;19974;-67
2023/01/01 07:35:40;;;;;;;;;;;20.70;42.70;;;;;;5056840;28;19943;-67
2023/01/01 07:38:07;;;;;;;;;;;20.80;42.70;;;;;;5056751;28;19921;-67
2023/01/01 07:40:34;;;;;;;;;;;20.80;42.60;;;;;;5056551;28;20015;-67
2023/01/01 07:43:00;;;;;;;;;;;20.80;42.60;;;;;;5056459;28;19927;-68
2023/01/01 07:45:27;;;;;;;;;;;20.90;42.60;;;;;;5056371;28;20391;-67
2023/01/01 07:47:55;;;;;;;;;;;20.90;42.50;;;;;;5054895;28;19928;-67
2023/01/01 07:50:23;;;;;;;;;;;20.90;42.50;;;;;;5055955;28;19920;-66
2023/01/01 07:52:50;;;;;;;;;;;20.90;42.40;;;;;;5056220;28;19927;-67
2023/01/01 07:55:18;;;;;;;;;;;21.00;42.40;;;;;;5067063;28;20261;-67
2023/01/01 07:57:45;;;;;;;;;;;21.00;42.40;;;;;;5076013;28;19921;-67
2023/01/01 08:00:13;;;;;;;;;;;21.00;42.30;;;;;;5076046;28;20283;-67
2023/01/01 08:02:42;;;;;;;;;;;21.10;42.30;;;;;;5076352;28;19927;-67
2023/01/01 08:05:09;;;;;;;;;;;21.10;42.30;;;;;;5076115;28;19927;-67
2023/01/01 08:07:37;;;;;;;;;;;21.10;42.20;;;;;;5075999;28;19927;-67
2023/01/01 08:10:04;;;;;;;;;;;21.10;42.20;;;;;;5075578;28;20273;-68
2023/01/01 08:12:32;;;;;;;;;;;21.20;42.20;;;;;;5075759;28;19920;-67
2023/01/01 08:14:58;;;;;;;;;;;21.20;42.20;;;;;;5076076;28;19931;-66
2023/01/01 08:17:25;;;;;;;;;;;21.20;42.20;;;;;;5076026;28;19924;-67
2023/01/01 08:19:52;;;;;;;;;;;21.20;42.10;;;;;;5075577;28;20010;-67
2023/01/01 08:22:19;;;;;;;;;;;21.30;42.10;;;;;;5074053;28;20038;-67
2023/01/01 08:24:46;;;;;;;;;;;21.30;42.10;;;;;;5055529;28;19960;-67
2023/01/01 08:27:14;;;;;;;;;;;21.30;42.00;;;;;;5055593;28;19920;-67
2023/01/01 08:29:41;;;;;;;;;;;21.40;42.00;;;;;;5055830;28;19951;-67
2023/01/01 08:32:08;;;;;;;;;;;21.40;42.00;;;;;;5055753;28;20304;-67
2023/01/01 08:34:35;;;;;;;;;;;21.40;41.90;;;;;;5037732;28;19925;-67
2023/01/01 08:37:02;;;;;;;;;;;21.50;41.90;;;;;;5055684;28;19921;-67
2023/01/01 08:39:29;;;;;;;;;;;21.50;41.90;;;;;;5055058;28;20011;-67
2023/01/01 08:41:56;;;;;;;;;;;21.50;41.90;;;;;;5055004;28;19927;-67
2023/01/01 08:44:23;;;;;;;;;;;21.60;41.90;;;;;;5055064;28;20383;-67
2023/01/01 08:46:53;;;;;;;;;;;21.60;41.80;;;;;;5055239;28;19927;-67
2023/01/01 08:49:20;;;;;;;;;;;21.60;41.80;;;;;;5055290;28;19928;-67
2023/01/01 08:51:47;;;;;;;;;;;21.60;41.80;;;;;;5055039;28;20079;-67
2023/01/01 08:54:14;;;;;;;;;;;21.70;41.70;;;;;;5055513;28;19927;-67
2023/01/01 08:56:41;;;;;;;;;;;21.70;41.70;;;;;;5055187;28;20379;-67
2023/01/01 08:59:08;;;;;;;;;;;21.70;41.60;;;;;;5054535;28;19971;-67
2023/01/01 09:01:35;;;;;;;;;;;21.80;41.70;;;;;;5054855;28;20356;-67
2023/01/01 09:04:02;;;;;;;;;;;21.80;41.60;;;;;;5054622;28;19920;-67
2023/01/01 09:06:29;;;;;;;;;;;21.80;41.60;;;;;;5054814;28;19972;-67
2023/01/01 09:08:56;;;;;;;;;;;21.80;41.50;;;;;;5054724;28;19983;-67
2023/01/01 09:11:24;;;;;;;;;;;21.80;41.50;;;;;;5054659;28;20386;-67
2023/01/01 09:13:51;;;;;;;;;;;21.90;41.50;;;;;;5054608;28;19927;-67
2023/01/01 09:16:18;;;;;;;;;;;21.90;41.50;;;;;;5054889;28;20015;-67
2023/01/01 09:18:45;;;;;;;;;;;21.90;41.50;;;;;;5054349;28;20355;-67
2023/01/01 09:21:12;;;;;;;;;;;21.90;41.50;;;;;;5054523;28;20373;-67
2023/01/01 09:23:39;;;;;;;;;;;22.00;41.50;;;;;;5054358;28;20418;-67
2023/01/01 09:26:07;;;;;;;;;;;21.90;41.40;;;;;;5054382;28;20285;-67
2023/01/01 09:28:35;;;;;;;;;;;22.00;41.40;;;;;;5054315;28;19939;-67
2023/01/01 09:31:05;;;;;;;;;;;22.00;41.40;;;;;;5054552;28;19920;-67
2023/01/01 09:33:32;;;;;;;;;;;22.10;41.40;;;;;;5054165;28;19966;-67
2023/01/01 09:36:13;;;;;;;;;;;22.10;41.90;;;;;;5054294;28;20424;-67
2023/01/01 09:38:40;;;;;;;;;;;22.10;41.40;;;;;;5054680;28;20357;-67
2023/01/01 09:41:22;;;;;;;;;;;22.10;41.30;;;;;;5054574;28;19921;-67
2023/01/01 09:43:56;;;;;;;;;;;22.20;41.30;;;;;;5053995;28;20013;-67
2023/01/01 09:46:24;;;;;;;;;;;22.20;41.30;;;;;;5054566;28;19920;-67
2023/01/01 09:49:00;;;;;;;;;;;22.20;41.20;;;;;;5053480;28;19966;-67
2023/01/01 09:51:29;;;;;;;;;;;22.30;41.70;;;;;;5053949;28;19956;-67
2023/01/01 09:54:04;;;;;;;;;;;22.30;41.10;;;;;;5054198;28;19942;-67
2023/01/01 09:56:33;;;;;;;;;;;22.40;41.10;;;;;;5053707;28;19920;-68
2023/01/01 09:59:00;;;;;;;;;;;22.40;41.10;;;;;;5053644;28;20364;-67
2023/01/01 10:01:40;;;;;;;;;;;22.40;41.00;;;;;;5054009;28;20360;-67
2023/01/01 10:04:26;;;;;;;;;;;22.40;41.00;;;;;;5053651;28;19924;-67
2023/01/01 10:07:13;;;;;;;;;;;22.40;41.00;;;;;;5039453;28;20333;-67
2023/01/01 10:10:00;;;;;;;;;;;22.40;41.00;;;;;;5053415;28;20003;-67
2023/01/01 10:12:35;;;;;;;;;;;22.50;41.00;;;;;;5053727;28;19920;-67
2023/01/01 10:15:05;;;;;;;;;;;22.50;41.00;;;;;;5053559;28;20022;-67
2023/01/01 10:17:35;;;;;;;;;;;22.50;41.00;;;;;;5053663;28;19927;-67
2023/01/01 10:20:06;;;;;;;;;;;22.50;41.50;;;;;;5053367;28;19935;-67
2023/01/01 10:22:36;;;;;;;;;;;22.50;41.00;;;;;;5053812;28;19998;-67
2023/01/01 10:25:07;;;;;;;;;;;22.50;41.00;;;;;;5053646;28;20312;-67
2023/01/01 10:27:46;;;;;;;;;;;22.50;41.00;;;;;;5053515;28;19935;-67
2023/01/01 10:30:18;;;;;;;;;;;22.50;41.00;;;;;;5053399;28;20023;-67
2023/01/01 10:32:46;;;;;;;;;;;22.50;41.00;;;;;;5053405;28;19927;-67
2023/01/01 10:35:15;;;;;;;;;;;22.50;41.00;;;;;;5019528;28;20456;-67
2023/01/01 10:37:42;;;;;;;;;;;22.60;41.00;;;;;;5053464;28;19927;-67
2023/01/01 10:40:14;;;;;;;;;;;22.60;41.00;;;;;;5053137;28;20007;-67
2023/01/01 10:42:40;;;;;;;;;;;22.60;41.00;;;;;;5053686;28;20293;-68
2023/01/01 10:45:12;;;;;;;;;;;22.60;41.00;;;;;;5053515;28;20335;-67
2023/01/01 10:47:38;;;;;;;;;;;22.60;41.00;;;;;;5052609;28;20372;-68
2023/01/01 10:50:09;;;;;;;;;;;22.60;41.10;;;;;;5053769;28;20015;-67
2023/01/01 10:52:37;;;;;;;;;;;22.60;41.10;;;;;;5053278;28;19921;-67
2023/01/01 10:55:05;;;;;;;;;;;22.60;41.10;;;;;;5052711;28;20424;-67
2023/01/01 10:57:39;;;;;;;;;;;22.60;41.10;;;;;;5053527;28;20011;-68
2023/01/01 11:00:23;;;;;;;;;;;22.60;41.10;;;;;;5053040;28;20407;-67
2023/01/01 11:03:09;;;;;;;;;;;22.60;41.10;;;;;;5053446;28;19944;-67
2023/01/01 11:05:36;;;;;;;;;;;22.60;41.10;;;;;;5053369;28;19923;-68
2023/01/01 11:08:03;;;;;;;;;;;22.60;41.10;;;;;;5064299;28;19999;-67
2023/01/01 11:10:30;;;;;;;;;;;22.60;41.10;;;;;;5073086;28;19927;-67
2023/01/01 11:12:57;;;;;;;;;;;22.60;41.10;;;;;;5072558;28;19924;-67
2023/01/01 11:15:40;;;;;;;;;;;22.60;41.10;;;;;;5072860;28;20434;-67
2023/01/01 11:18:26;;;;;;;;;;;22.60;41.60;;;;;;5073388;28;19931;-67
2023/01/01 11:20:55;;;;;;;;;;;22.60;41.10;;;;;;5072928;28;20427;-67
2023/01/01 11:23:36;;;;;;;;;;;22.60;41.10;;;;;;5075655;28;19927;-67
2023/01/01 11:26:18;;;;;;;;;;;22.70;41.10;;;;;;5076098;28;19967;-67
2023/01/01 11:28:59;;;;;;;;;;;22.70;41.10;;;;;;5076364;28;20019;-67
2023/01/01 11:31:28;;;;;;;;;;;22.70;41.10;;;;;;5076398;28;20287;-67
2023/01/01 11:33:55;;;;;;;;;;;22.70;41.10;;;;;;5076270;28;19943;-67
2023/01/01 11:36:24;;;;;;;;;;;22.70;41.20;;;;;;5076496;28;19920;-67
2023/01/01 11:39:11;;;;;;;;;;;22.70;41.10;;;;;;5076758;28;20283;-68
2023/01/01 11:41:42;;;;;;;;;;;22.70;41.10;;;;;;5074631;28;19920;-68
2023/01/01 11:44:10;;;;;;;;;;;22.70;41.10;;;;;;5075044;28;20374;-67
2023/01/01 11:46:38;;;;;;;;;;;22.70;41.10;;;;;;5075696;28;19925;-68
2023/01/01 11:49:13;;;;;;;;;;;22.70;41.20;;;;;;5075188;28;19974;-67
2023/01/01 11:51:40;;;;;;;;;;;22.70;41.20;;;;;;5076584;28;20011;-68
2023/01/01 11:54:21;;;;;;;;;;;22.70;41.10;;;;;;5075085;28;19927;-67
2023/01/01 11:56:51;;;;;;;;;;;22.70;41.20;;;;;;5058221;28;19950;-67
2023/01/01 11:59:20;;;;;;;;;;;22.80;41.20;;;;;;5075685;28;20279;-67
2023/01/01 12:01:52;;;;;;;;;;;22.70;41.10;;;;;;5075878;28;19920;-67
2023/01/01 12:04:29;;;;;;;;;;;22.70;41.20;;;;;;5076189;28;20015;-67
2023/01/01 12:07:03;;;;;;;;;;;22.80;41.20;;;;;;5075839;28;19927;-67
2023/01/01 12:09:50;;;;;;;;;;;22.70;41.10;;;;;;5076216;28;19920;-67
2023/01/01 12:12:22;;;;;;;;;;;22.80;41.20;;;;;;5075291;28;19924;-67
2023/01/01 12:14:56;;;;;;;;;;;22.80;41.20;;;;;;5076029;28;20278;-67
2023/01/01 12:17:26;;;;;;;;;;;22.80;41.10;;;;;;5074998;28;19927;-67
2023/01/01 12:20:13;;;;;;;;;;;22.80;41.10;;;;;;5075380;28;19920;-67
2023/01/01 12:22:40;;;;;;;;;;;22.80;41.20;;;;;;5075677;28;19926;-67
2023/01/01 12:25:15;;;;;;;;;;;22.80;41.10;;;;;;5075811;28;19936;-67
2023/01/01 12:27:59;;;;;;;;;;;22.80;41.10;;;;;;5058203;28;20375;-69
2023/01/01 12:30:31;;;;;;;;;;;22.80;41.10;;;;;;5075469;28;19920;-67
2023/01/01 12:33:17;;;;;;;;;;;22.80;41.10;;;;;;5074948;28;20014;-67
2023/01/01 12:35:56;;;;;;;;;;;22.80;41.10;;;;;;5074942;28;20031;-67
2023/01/01 12:38:33;;;;;;;;;;;22.80;41.10;;;;;;5075350;28;20018;-67
2023/01/01 12:41:07;;;;;;;;;;;22.80;41.10;;;;;;5074671;28;20390;-67
2023/01/01 12:43:51;;;;;;;;;;;22.80;41.10;;;;;;5074965;28;19920;-67
2023/01/01 12:46:24;;;;;;;;;;;22.80;41.10;;;;;;5074936;28;20283;-67
2023/01/01 12:49:06;;;;;;;;;;;22.90;41.10;;;;;;5057119;28;19920;-67
2023/01/01 12:51:39;;;;;;;;;;;22.90;41.10;;;;;;5057691;28;20372;-67
2023/01/01 12:54:26;;;;;;;;;;;22.90;41.10;;;;;;5075034;28;19921;-67
2023/01/01 12:57:13;;;;;;;;;;;22.90;41.10;;;;;;5059986;28;19921;-68
2023/01/01 12:59:42;;;;;;;;;;;22.90;41.10;;;;;;5075245;28;20283;-67
2023/01/01 13:02:15;;;;;;;;;;;22.90;41.60;;;;;;5056967;28;19927;-67
2023/01/01 13:04:44;;;;;;;;;;;22.90;41.10;;;;;;5073621;28;20011;-67
2023/01/01 13:07:11;;;;;;;;;;;22.90;41.10;;;;;;5074179;28;19920;-67
2023/01/01 13:09:43;;;;;;;;;;;22.90;41.10;;;;;;5074465;28;19926;-67
2023/01/01 13:12:12;;;;;;;;;;;22.90;41.10;;;;;;5074681;28;19927;-67
2023/01/01 13:14:40;;;;;;;;;;;22.90;41.10;;;;;;5056917;28;20364;-67
2023/01/01 13:17:27;;;;;;;;;;;22.90;41.10;;;;;;5074559;28;20367;-67
2023/01/01 13:19:58;;;;;;;;;;;22.90;41.10;;;;;;5074317;28;19920;-67
2023/01/01 13:22:37;;;;;;;;;;;22.90;41.10;;;;;;5073858;28;19974;-67
2023/01/01 13:25:18;;;;;;;;;;;22.90;41.10;;;;;;5073716;28;19963;-67
2023/01/01 13:28:05;;;;;;;;;;;22.90;41.10;;;;;;5074746;28;20010;-67
2023/01/01 13:30:46;;;;;;;;;;;22.90;41.20;;;;;;5074236;28;19920;-67
2023/01/01 13:33:25;;;;;;;;;;;22.90;41.20;;;;;;5073255;28;20015;-67
2023/01/01 13:36:13;;;;;;;;;;;22.90;41.20;;;;;;5074268;28;19974;-67
2023/01/01 13:38:44;;;;;;;;;;;22.90;41.20;;;;;;5059566;28;19920;-67
2023/01/01 13:41:28;;;;;;;;;;;22.90;41.20;;;;;;5074008;28;19921;-67
2023/01/01 13:44:15;;;;;;;;;;;22.90;41.20;;;;;;5056682;28;20394;-67
2023/01/01 13:46:58;;;;;;;;;;;22.80;41.20;;;;;;5074256;28;20292;-67
2023/01/01 13:49:45;;;;;;;;;;;22.80;41.30;;;;;;5073697;28;20359;-67
2023/01/01 13:52:22;;;;;;;;;;;22.80;41.30;;;;;;5074205;28;19920;-67
2023/01/01 13:55:09;;;;;;;;;;;22.80;41.30;;;;;;5073854;28;20291;-67
2023/01/01 13:57:56;;;;;;;;;;;22.80;41.30;;;;;;5059172;28;19920;-67
2023/01/01 14:00:26;;;;;;;;;;;22.80;41.30;;;;;;5073712;28;19928;-67
2023/01/01 14:02:58;;;;;;;;;;;22.80;41.40;;;;;;5073858;28;19920;-67
2023/01/01 14:05:30;;;;;;;;;;;22.80;41.70;;;;;;5074018;28;20011;-67
2023/01/01 14:07:57;;;;;;;;;;;22.80;41.50;;;;;;5074085;28;19966;-67
2023/01/01 14:10:29;;;;;;;;;;;22.80;41.50;;;;;;5073920;28;19921;-67
2023/01/01 14:13:16;;;;;;;;;;;22.80;41.50;;;;;;5073588;28;19920;-67
2023/01/01 14:15:54;;;;;;;;;;;22.70;41.50;;;;;;5074225;28;19920;-67
2023/01/01 14:18:24;;;;;;;;;;;22.70;41.50;;;;;;5073502;28;19921;-67
2023/01/01 14:20:52;;;;;;;;;;;22.70;41.60;;;;;;5039651;28;19921;-67
2023/01/01 14:23:30;;;;;;;;;;;22.70;41.60;;;;;;5073455;28;19920;-67
2023/01/01 14:25:59;;;;;;;;;;;22.70;41.60;;;;;;5055932;28;19920;-67
2023/01/01 14:28:30;;;;;;;;;;;22.70;41.70;;;;;;5073798;28;20008;-67
2023/01/01 14:30:59;;;;;;;;;;;22.70;41.70;;;;;;5073816;28;19920;-67